createdAt,value
2023-01-19T00:04:23.709Z,56
2023-01-19T00:14:33.786Z,56
2023-01-19T00:24:42.307Z,56
2023-01-19T00:34:50.926Z,56
2023-01-19T00:44:59.537Z,56
2023-01-19T00:55:08.171Z,56
2023-01-19T01:05:16.996Z,56
2023-01-19T01:15:25.053Z,56
2023-01-19T01:25:32.858Z,56
2023-01-19T01:35:40.735Z,56
2023-01-19T01:45:49.102Z,56
2023-01-19T01:55:57.039Z,55
2023-01-19T02:06:04.938Z,55
2023-01-19T02:16:12.710Z,54
2023-01-19T02:26:20.716Z,54
2023-01-19T02:36:28.609Z,53
2023-01-19T02:46:36.484Z,52
2023-01-19T02:56:45.606Z,52
2023-01-19T03:06:53.855Z,50
2023-01-19T03:17:03.114Z,50
2023-01-19T03:27:11.142Z,49
2023-01-19T03:37:19.013Z,49
2023-01-19T03:47:27.100Z,50
2023-01-19T03:57:35.028Z,49
2023-01-19T04:07:43.106Z,49
2023-01-19T04:17:51.054Z,50
2023-01-19T04:27:59.193Z,50
2023-01-19T04:38:07.149Z,51
2023-01-19T04:48:15.565Z,51
2023-01-19T04:58:17.911Z,51
2023-01-19T05:08:15.980Z,53
2023-01-19T05:18:24.173Z,54
2023-01-19T05:28:32.093Z,55
2023-01-19T05:38:40.032Z,56
2023-01-19T05:48:47.989Z,56
2023-01-19T05:58:55.830Z,57
2023-01-19T06:09:03.752Z,57
2023-01-19T06:19:11.726Z,57
2023-01-19T06:29:19.846Z,58
2023-01-19T06:39:27.489Z,58
2023-01-19T06:49:35.342Z,58
2023-01-19T06:59:43.131Z,59
2023-01-19T07:09:51.550Z,60
2023-01-19T07:19:57.755Z,60
2023-01-19T07:30:05.813Z,60
2023-01-19T07:40:14.100Z,60
2023-01-19T07:50:22.143Z,60
2023-01-19T08:00:30.411Z,59
2023-01-19T08:10:38.554Z,56
2023-01-19T08:20:46.708Z,53
2023-01-19T08:30:54.791Z,51
2023-01-19T08:40:55.580Z,50
2023-01-19T08:51:03.523Z,50
2023-01-19T09:01:15.499Z,49
2023-01-19T09:11:18.441Z,49
2023-01-19T09:21:16.889Z,48
2023-01-19T09:31:25.128Z,47
2023-01-19T09:41:37.543Z,46
2023-01-19T09:51:35.697Z,45
2023-01-19T10:01:43.948Z,44
2023-01-19T10:11:52.830Z,44
2023-01-19T10:21:59.456Z,43
2023-01-19T10:32:07.956Z,42
2023-01-19T10:42:15.930Z,42
2023-01-19T10:52:24.152Z,41
2023-01-19T11:02:34.216Z,40
2023-01-19T11:12:42.143Z,40
2023-01-19T11:22:49.661Z,40
2023-01-19T11:32:59.086Z,39
2023-01-19T11:43:07.016Z,41
2023-01-19T11:53:15.070Z,42
2023-01-19T12:03:23.169Z,42
2023-01-19T12:13:31.285Z,42
2023-01-19T12:23:39.898Z,44
2023-01-19T12:33:48.052Z,44
2023-01-19T12:43:55.926Z,44
2023-01-19T12:54:04.085Z,44
2023-01-19T13:04:11.839Z,44
2023-01-19T13:14:19.962Z,44
2023-01-19T13:24:28.347Z,43
2023-01-19T13:34:36.399Z,43
2023-01-19T13:44:44.489Z,42
2023-01-19T13:54:53.949Z,41
2023-01-19T14:15:00.551Z,41
2023-01-19T14:25:08.644Z,40
2023-01-19T14:35:16.637Z,40
2023-01-19T14:45:27.625Z,40
2023-01-19T14:55:25.723Z,40
2023-01-19T15:05:33.753Z,40
2023-01-19T15:15:41.841Z,39
2023-01-19T15:25:50.906Z,39
2023-01-19T15:35:59.055Z,39
2023-01-19T15:46:09.959Z,39
2023-01-19T16:06:10.384Z,37
2023-01-19T16:16:13.225Z,37
2023-01-19T16:26:21.321Z,37
2023-01-19T16:36:22.065Z,37
2023-01-19T16:46:30.387Z,37
2023-01-19T16:56:38.390Z,37
2023-01-19T17:06:47.064Z,39
2023-01-19T17:16:48.435Z,39
2023-01-19T17:26:56.280Z,39
2023-01-19T17:37:04.569Z,38
2023-01-19T17:47:12.915Z,38
2023-01-19T17:57:20.940Z,38
2023-01-19T18:07:30.346Z,38
2023-01-19T18:17:38.411Z,37
2023-01-19T18:27:48.461Z,37
2023-01-19T18:37:47.613Z,37
2023-01-19T18:47:57.451Z,38
2023-01-19T19:07:58.719Z,39
2023-01-19T19:18:08.737Z,41
2023-01-19T19:38:11.579Z,43
2023-01-19T19:48:22.192Z,45
2023-01-19T19:58:29.467Z,47
2023-01-19T20:08:39.701Z,48
2023-01-19T20:18:39.248Z,49
2023-01-19T20:28:47.723Z,51
2023-01-19T20:38:55.869Z,51
2023-01-19T20:49:03.893Z,51
2023-01-19T20:59:03.937Z,52
2023-01-19T21:09:12.140Z,53
2023-01-19T21:19:22.738Z,54
2023-01-19T21:29:20.862Z,54
2023-01-19T21:39:28.871Z,55
2023-01-19T21:49:29.354Z,55
2023-01-19T21:59:38.515Z,55
2023-01-19T22:09:46.965Z,55
2023-01-19T22:19:58.389Z,55
2023-01-19T22:29:57.555Z,54
2023-01-19T22:40:01.339Z,55
2023-01-19T22:50:10.054Z,55
2023-01-19T23:00:18.882Z,56
2023-01-19T23:10:29.623Z,57
2023-01-19T23:20:28.434Z,57
2023-01-19T23:30:36.929Z,56
2023-01-19T23:40:44.880Z,56
2023-01-19T23:50:53.025Z,57
